Time;durP1;ratioP1;P1;durP2;ratioP2;P2;SDS_P1;SDS_P2;PMS_P1;PMS_P2;Temp;Humidity;BMP_temperature;BMP_pressure;BME280_temperature;BME280_humidity;BME280_pressure;Samples;Min_cycle;Max_cycle;Signal;HPM_P1;HPM_P2
2023/03/22 00:00:54;;;;;;;9.63;5.20;;;10.10;99.90;;;;;;5055900;28;20041;-65
2023/03/22 00:03:21;;;;;;;10.32;5.15;;;10.20;99.90;;;;;;5057014;28;20109;-66
2023/03/22 00:05:47;;;;;;;10.77;5.25;;;10.10;99.90;;;;;;5055382;28;20057;-66
2023/03/22 00:08:13;;;;;;;12.25;5.57;;;10.10;99.90;;;;;;5055742;28;20072;-66
2023/03/22 00:10:40;;;;;;;10.73;5.07;;;10.20;99.90;;;;;;5056324;28;20159;-66
2023/03/22 00:13:08;;;;;;;9.32;4.85;;;10.20;99.90;;;;;;5056228;28;20037;-66
2023/03/22 00:15:35;;;;;;;9.18;4.38;;;10.20;99.90;;;;;;5055625;28;20052;-65
2023/03/22 00:18:04;;;;;;;6.43;4.20;;;10.10;99.90;;;;;;5056261;28;20425;-65
2023/03/22 00:20:32;;;;;;;10.65;5.30;;;10.20;99.90;;;;;;5056060;28;20045;-65
2023/03/22 00:22:59;;;;;;;9.13;4.40;;;10.20;99.90;;;;;;5037730;28;20044;-66
2023/03/22 00:25:25;;;;;;;10.02;5.07;;;10.10;99.90;;;;;;5038127;28;20053;-65
2023/03/22 00:27:51;;;;;;;8.68;4.63;;;10.20;99.90;;;;;;5055315;28;20099;-65
2023/03/22 00:30:17;;;;;;;7.88;4.75;;;10.30;99.90;;;;;;5055363;28;20480;-65
2023/03/22 00:32:42;;;;;;;8.82;4.45;;;10.30;99.90;;;;;;5055259;28;20052;-65
2023/03/22 00:35:10;;;;;;;8.88;4.72;;;10.20;99.90;;;;;;5037538;28;20049;-66
2023/03/22 00:37:37;;;;;;;8.27;5.07;;;10.30;99.90;;;;;;5055241;28;20084;-65
2023/03/22 00:40:21;;;;;;;9.60;4.82;;;10.20;99.90;;;;;;5055700;28;20202;-65
2023/03/22 00:42:47;;;;;;;8.35;3.78;;;10.20;99.90;;;;;;5055178;28;20056;-65
2023/03/22 00:45:13;;;;;;;7.38;4.50;;;10.20;99.90;;;;;;5037489;28;20049;-65
2023/03/22 00:47:39;;;;;;;8.95;4.28;;;10.20;99.90;;;;;;5054923;28;20095;-65
2023/03/22 00:50:06;;;;;;;10.52;4.72;;;10.20;99.90;;;;;;5055570;28;20048;-66
2023/03/22 00:52:32;;;;;;;8.15;4.30;;;10.20;99.90;;;;;;5020500;28;20128;-66
2023/03/22 00:54:58;;;;;;;5.97;4.00;;;10.10;99.90;;;;;;5054873;28;20049;-65
2023/03/22 00:57:23;;;;;;;9.95;4.57;;;10.10;99.90;;;;;;5055043;28;20055;-65
2023/03/22 00:59:51;;;;;;;8.82;4.68;;;10.10;99.90;;;;;;5054785;28;20060;-65
2023/03/22 01:02:17;;;;;;;9.65;3.83;;;10.10;99.90;;;;;;5054438;28;20454;-65
2023/03/22 01:04:46;;;;;;;9.18;4.63;;;10.10;99.90;;;;;;5054150;28;20055;-66
2023/03/22 01:07:20;;;;;;;8.65;4.05;;;10.10;99.90;;;;;;5037626;28;20049;-65
2023/03/22 01:09:47;;;;;;;6.63;3.72;;;10.10;99.90;;;;;;5037240;28;20124;-65
2023/03/22 01:12:13;;;;;;;8.45;4.20;;;10.10;99.90;;;;;;5055023;28;20056;-65
2023/03/22 01:14:39;;;;;;;8.85;4.50;;;10.10;99.90;;;;;;5054520;28;20045;-65
2023/03/22 01:17:06;;;;;;;9.50;4.80;;;10.00;99.90;;;;;;5054744;28;20503;-65
2023/03/22 01:19:33;;;;;;;11.07;4.78;;;10.00;99.90;;;;;;5037645;28;20063;-66
2023/03/22 01:21:59;;;;;;;8.00;4.38;;;10.10;99.90;;;;;;5055159;28;20080;-66
2023/03/22 01:24:24;;;;;;;6.90;3.92;;;10.00;99.90;;;;;;5054397;28;20448;-66
2023/03/22 01:26:50;;;;;;;7.05;3.65;;;9.90;99.90;;;;;;5054263;28;20076;-66
2023/03/22 01:29:16;;;;;;;7.85;3.42;;;9.90;99.90;;;;;;5054520;28;20045;-65
2023/03/22 01:31:42;;;;;;;6.25;3.50;;;10.00;99.90;;;;;;5054199;28;20520;-65
2023/03/22 01:34:08;;;;;;;8.13;2.72;;;10.00;99.90;;;;;;5036309;28;20515;-66
2023/03/22 01:36:35;;;;;;;6.95;3.25;;;9.90;99.90;;;;;;5054119;28;20080;-66
2023/03/22 01:39:01;;;;;;;6.18;2.78;;;10.00;99.90;;;;;;5054890;28;20148;-65
2023/03/22 01:41:27;;;;;;;9.52;3.40;;;9.90;99.90;;;;;;5054588;28;20052;-65
2023/03/22 01:44:13;;;;;;;7.90;3.33;;;9.90;99.90;;;;;;5054253;28;20366;-65
2023/03/22 01:46:40;;;;;;;8.68;3.03;;;9.80;99.90;;;;;;5054498;28;20099;-65
2023/03/22 01:49:12;;;;;;;6.03;2.90;;;9.90;99.90;;;;;;5053823;28;20083;-65
2023/03/22 01:51:38;;;;;;;5.65;2.72;;;9.80;99.90;;;;;;5054483;28;20052;-66
2023/03/22 01:54:11;;;;;;;7.70;2.80;;;10.00;99.90;;;;;;5053850;28;20102;-65
2023/03/22 01:56:39;;;;;;;6.93;2.77;;;9.90;99.90;;;;;;5054134;28;20040;-65
2023/03/22 01:59:09;;;;;;;5.53;1.90;;;9.70;99.90;;;;;;5053980;28;20747;-65
2023/03/22 02:01:36;;;;;;;5.97;2.30;;;9.90;99.90;;;;;;5054308;28;20047;-65
2023/03/22 02:04:24;;;;;;;5.93;2.17;;;9.80;99.90;;;;;;5053597;28;20052;-66
2023/03/22 02:06:56;;;;;;;6.00;1.75;;;9.80;99.90;;;;;;5053808;28;20123;-65
2023/03/22 02:09:22;;;;;;;4.57;1.73;;;9.80;99.90;;;;;;5054035;28;20128;-65
2023/03/22 02:12:17;;;;;;;3.47;1.80;;;9.80;99.90;;;;;;5053651;28;20080;-65
2023/03/22 02:14:51;;;;;;;5.15;1.70;;;9.80;99.90;;;;;;5052170;28;20136;-66
2023/03/22 02:17:38;;;;;;;5.72;1.92;;;9.80;99.90;;;;;;5053348;28;20064;-66
2023/03/22 02:20:27;;;;;;;5.13;1.67;;;9.70;99.90;;;;;;5035809;28;20088;-66
2023/03/22 02:23:20;;;;;;;3.38;1.65;;;9.70;99.90;;;;;;5053840;28;20049;-65
2023/03/22 02:26:32;;;;;;;6.72;1.60;;;9.70;99.90;;;;;;5053543;28;20084;-65
2023/03/22 02:29:21;;;;;;;4.95;1.85;;;9.70;99.90;;;;;;5054018;28;20041;-65
2023/03/22 02:32:34;;;;;;;7.38;2.13;;;9.80;99.90;;;;;;5053472;28;20084;-65
2023/03/22 02:35:33;;;;;;;4.32;1.60;;;9.70;99.90;;;;;;4991717;28;20047;-66
2023/03/22 02:38:35;;;;;;;4.95;1.52;;;9.70;99.90;;;;;;4975643;28;20494;-65
2023/03/22 02:41:15;;;;;;;6.82;2.03;;;9.60;99.90;;;;;;5049398;28;20099;-65
2023/03/22 02:43:59;;;;;;;4.45;2.13;;;9.70;99.90;;;;;;5039780;28;20044;-65
2023/03/22 02:46:29;;;;;;;7.35;2.17;;;9.70;99.90;;;;;;5057456;28;20542;-65
2023/03/22 02:49:06;;;;;;;5.05;1.95;;;9.70;99.90;;;;;;5040345;28;20049;-65
2023/03/22 02:51:47;;;;;;;5.45;1.90;;;9.60;99.90;;;;;;5039680;28;20473;-66
2023/03/22 02:54:43;;;;;;;5.18;2.25;;;9.70;99.90;;;;;;5057181;28;20053;-66
2023/03/22 02:57:12;;;;;;;5.93;1.80;;;9.70;99.90;;;;;;5056522;28;20064;-65
2023/03/22 02:59:40;;;;;;;7.28;2.10;;;9.70;99.90;;;;;;5057017;28;20045;-65
2023/03/22 03:02:10;;;;;;;5.18;1.83;;;9.60;99.90;;;;;;5039157;28;20092;-65
2023/03/22 03:04:41;;;;;;;5.85;2.20;;;9.60;99.90;;;;;;5057343;28;20067;-66
2023/03/22 03:07:13;;;;;;;9.02;2.65;;;9.50;99.90;;;;;;5040161;28;20053;-66
2023/03/22 03:09:41;;;;;;;4.85;1.95;;;9.60;99.90;;;;;;5057761;28;20411;-65
2023/03/22 03:12:19;;;;;;;8.80;2.50;;;9.60;99.90;;;;;;5056847;28;20048;-65
2023/03/22 03:14:44;;;;;;;4.40;2.15;;;9.70;99.90;;;;;;5057442;28;20049;-65
2023/03/22 03:17:35;;;;;;;7.90;2.15;;;9.60;99.90;;;;;;5057073;28;20523;-65
2023/03/22 03:20:28;;;;;;;7.68;2.47;;;9.60;99.90;;;;;;5056716;28;20439;-65
2023/03/22 03:23:12;;;;;;;;;;;9.70;99.90;;;;;;5057658;28;20041;-65
2023/03/22 03:25:57;;;;;;;6.47;2.38;;;9.60;99.90;;;;;;5056915;28;20323;-65
2023/03/22 03:28:38;;;;;;;4.63;1.80;;;9.60;99.90;;;;;;5039064;28;20477;-65
2023/03/22 03:31:16;;;;;;;8.13;2.17;;;9.60;99.90;;;;;;5056509;28;20052;-65
2023/03/22 03:33:52;;;;;;;6.65;1.73;;;9.60;99.90;;;;;;5039473;28;20059;-66
2023/03/22 03:36:20;;;;;;;6.05;1.80;;;9.70;99.90;;;;;;5056395;28;20049;-66
2023/03/22 03:38:50;;;;;;;5.70;1.85;;;9.60;99.90;;;;;;5038467;28;20044;-65
2023/03/22 03:41:24;;;;;;;6.13;1.90;;;9.60;99.90;;;;;;5038813;28;20396;-65
2023/03/22 03:43:51;;;;;;;6.43;1.55;;;9.70;99.90;;;;;;5039066;28;20080;-65
2023/03/22 03:46:17;;;;;;;4.28;1.48;;;9.60;99.90;;;;;;5056246;28;20084;-65
2023/03/22 03:48:47;;;;;;;4.68;1.70;;;9.60;99.90;;;;;;5056170;28;20087;-65
2023/03/22 03:51:12;;;;;;;7.40;1.73;;;9.60;99.90;;;;;;5056350;28;20132;-65
2023/03/22 03:53:38;;;;;;;8.35;1.83;;;9.60;99.90;;;;;;5035080;28;20076;-65
2023/03/22 03:56:04;;;;;;;7.20;1.90;;;9.60;99.90;;;;;;5065377;28;20044;-66
2023/03/22 03:58:30;;;;;;;4.50;1.70;;;9.60;99.90;;;;;;5041973;28;20485;-65
2023/03/22 04:00:57;;;;;;;6.03;1.58;;;9.60;99.90;;;;;;5038483;28;20059;-65
2023/03/22 04:03:23;;;;;;;4.72;1.60;;;9.60;99.90;;;;;;5055896;28;20040;-65
2023/03/22 04:05:48;;;;;;;6.13;1.55;;;9.60;99.90;;;;;;5055426;28;20057;-66
2023/03/22 04:08:14;;;;;;;6.65;2.08;;;9.60;99.90;;;;;;5056266;28;20084;-66
2023/03/22 04:10:40;;;;;;;6.03;1.77;;;9.60;99.90;;;;;;5055741;28;20060;-65
2023/03/22 04:13:06;;;;;;;5.45;1.83;;;9.60;99.90;;;;;;5055731;28;20045;-65
2023/03/22 04:15:32;;;;;;;5.38;2.13;;;9.70;99.90;;;;;;5056555;28;20049;-66
2023/03/22 04:17:58;;;;;;;5.25;1.88;;;9.50;99.90;;;;;;5055603;28;20473;-65
2023/03/22 04:20:25;;;;;;;6.97;1.83;;;9.60;99.90;;;;;;5055260;28;20501;-66
2023/03/22 04:22:51;;;;;;;6.68;1.67;;;9.60;99.90;;;;;;5055546;28;20489;-66
2023/03/22 04:25:17;;;;;;;6.80;1.55;;;9.50;99.90;;;;;;5038516;28;20052;-66
2023/03/22 04:27:46;;;;;;;4.28;1.83;;;9.70;99.90;;;;;;5055615;28;20041;-65
2023/03/22 04:30:18;;;;;;;6.18;2.00;;;9.60;99.90;;;;;;5056111;28;20090;-65
2023/03/22 04:32:46;;;;;;;4.57;1.83;;;9.60;99.90;;;;;;5056762;28;20091;-66
2023/03/22 04:35:12;;;;;;;5.70;2.05;;;9.70;99.90;;;;;;5059326;28;20342;-66
2023/03/22 04:37:38;;;;;;;3.78;1.95;;;9.60;99.90;;;;;;5060943;28;20055;-65
2023/03/22 04:40:06;;;;;;;4.38;1.70;;;9.50;99.90;;;;;;5040119;28;20443;-65
2023/03/22 04:42:32;;;;;;;6.80;2.20;;;9.60;99.90;;;;;;5038123;28;20071;-66
2023/03/22 04:44:59;;;;;;;3.25;1.60;;;9.60;99.90;;;;;;5055630;28;20128;-65
2023/03/22 04:47:25;;;;;;;6.85;1.90;;;9.60;99.90;;;;;;5021144;28;20087;-65
2023/03/22 04:49:50;;;;;;;6.13;1.85;;;9.60;99.90;;;;;;5055095;28;20088;-65
2023/03/22 04:52:16;;;;;;;6.20;2.35;;;9.50;99.90;;;;;;5055777;28;20102;-65
2023/03/22 04:54:42;;;;;;;6.22;1.90;;;9.60;99.90;;;;;;5055468;28;20496;-65
2023/03/22 04:57:08;;;;;;;5.65;1.98;;;9.50;99.90;;;;;;5054924;28;20435;-65
2023/03/22 04:59:34;;;;;;;8.02;2.58;;;9.50;99.90;;;;;;5037982;28;20075;-65
2023/03/22 05:01:59;;;;;;;5.53;2.50;;;9.60;99.90;;;;;;5021612;28;20053;-65
2023/03/22 05:04:26;;;;;;;8.02;2.35;;;9.60;99.90;;;;;;5053851;28;20103;-66
2023/03/22 05:06:52;;;;;;;7.28;2.50;;;9.60;99.90;;;;;;5054809;28;20129;-65
2023/03/22 05:09:18;;;;;;;5.72;2.60;;;9.60;99.90;;;;;;5036750;28;20210;-65
2023/03/22 05:11:44;;;;;;;4.90;2.58;;;9.60;99.90;;;;;;5054632;28;20085;-66
2023/03/22 05:14:10;;;;;;;8.63;3.05;;;9.60;99.90;;;;;;5036998;28;20041;-65
2023/03/22 05:16:39;;;;;;;6.85;3.28;;;9.70;99.90;;;;;;5054460;28;20079;-64
2023/03/22 05:19:12;;;;;;;6.97;3.80;;;9.80;99.90;;;;;;5055028;28;20080;-65
2023/03/22 05:21:40;;;;;;;8.77;4.00;;;9.60;99.90;;;;;;5054438;28;20060;-65
2023/03/22 05:24:07;;;;;;;10.98;4.35;;;9.60;99.90;;;;;;5054377;28;20045;-65
2023/03/22 05:26:36;;;;;;;7.82;4.07;;;9.60;99.90;;;;;;5054561;28;20044;-65
2023/03/22 05:29:03;;;;;;;10.45;4.43;;;9.70;99.90;;;;;;5054206;28;20049;-66
2023/03/22 05:31:33;;;;;;;6.65;4.53;;;9.60;99.90;;;;;;5054111;28;20045;-65
2023/03/22 05:34:00;;;;;;;10.75;5.45;;;9.60;99.90;;;;;;5036611;28;20143;-65
2023/03/22 05:36:28;;;;;;;9.68;5.35;;;9.70;99.90;;;;;;5037065;28;20123;-65
2023/03/22 05:38:55;;;;;;;9.30;5.90;;;9.60;99.90;;;;;;5054074;28;20127;-65
2023/03/22 05:41:21;;;;;;;9.73;6.13;;;9.70;99.90;;;;;;5054056;28;20120;-65
2023/03/22 05:43:46;;;;;;;12.32;6.60;;;9.80;99.90;;;;;;5054258;28;20457;-65
2023/03/22 05:46:12;;;;;;;10.98;6.35;;;9.60;99.90;;;;;;5053974;28;20045;-65
2023/03/22 05:48:39;;;;;;;11.98;7.57;;;9.70;99.90;;;;;;5036442;28;20363;-65
2023/03/22 05:51:08;;;;;;;12.15;7.63;;;9.90;99.90;;;;;;5036327;28;20056;-65
2023/03/22 05:53:34;;;;;;;11.60;7.30;;;9.70;99.90;;;;;;5035991;28;20061;-65
2023/03/22 05:56:00;;;;;;;11.82;8.02;;;9.80;99.90;;;;;;5053834;28;20497;-65
2023/03/22 05:58:30;;;;;;;13.65;7.90;;;9.70;99.90;;;;;;5054247;28;20056;-65
2023/03/22 06:01:15;;;;;;;13.75;7.80;;;9.80;99.90;;;;;;5036382;28;20148;-65
2023/03/22 06:03:41;;;;;;;13.70;7.95;;;9.80;99.90;;;;;;5054173;28;20053;-65
2023/03/22 06:06:09;;;;;;;11.63;7.68;;;9.70;99.90;;;;;;5053995;28;20411;-66
2023/03/22 06:08:38;;;;;;;13.82;8.20;;;9.80;99.90;;;;;;5036601;28;20045;-65
2023/03/22 06:11:05;;;;;;;14.38;8.45;;;9.80;99.90;;;;;;5053563;28;20405;-65
2023/03/22 06:13:32;;;;;;;12.93;8.23;;;9.80;99.90;;;;;;5053491;28;20132;-65
2023/03/22 06:16:01;;;;;;;13.32;8.00;;;9.80;99.90;;;;;;5053339;28;20053;-65
2023/03/22 06:18:28;;;;;;;12.05;7.30;;;9.90;99.90;;;;;;5053854;28;20045;-65
2023/03/22 06:20:54;;;;;;;13.52;7.65;;;9.90;99.90;;;;;;5053500;28;20166;-65
2023/03/22 06:23:20;;;;;;;10.63;7.63;;;9.90;99.90;;;;;;5053506;28;20136;-65
2023/03/22 06:25:46;;;;;;;10.48;7.32;;;9.90;99.90;;;;;;5053957;28;20124;-65
2023/03/22 06:28:11;;;;;;;12.18;8.02;;;9.90;99.90;;;;;;5053399;28;20047;-65
2023/03/22 06:30:37;;;;;;;13.10;7.72;;;9.90;99.90;;;;;;5053426;28;20044;-65
2023/03/22 06:33:04;;;;;;;12.15;7.53;;;9.90;99.90;;;;;;5053172;28;20048;-65
2023/03/22 06:35:32;;;;;;;11.60;7.15;;;9.90;99.90;;;;;;5053324;28;20095;-66
2023/03/22 06:37:58;;;;;;;11.40;7.13;;;9.90;99.90;;;;;;5053339;28;20083;-65
2023/03/22 06:40:24;;;;;;;11.73;7.65;;;9.90;99.90;;;;;;5053326;28;20098;-65
2023/03/22 06:42:50;;;;;;;13.45;7.13;;;10.00;99.90;;;;;;5053319;28;20045;-65
2023/03/22 06:45:16;;;;;;;14.13;7.25;;;10.00;99.90;;;;;;5035976;28;20041;-65
2023/03/22 06:47:43;;;;;;;11.07;7.07;;;10.00;99.90;;;;;;5053208;28;20091;-66
2023/03/22 06:50:09;;;;;;;13.25;7.90;;;10.00;99.90;;;;;;5053383;28;20052;-65
2023/03/22 06:52:35;;;;;;;13.48;7.68;;;10.00;99.90;;;;;;5053272;28;20053;-65
2023/03/22 06:55:01;;;;;;;11.30;7.35;;;10.00;99.90;;;;;;5053991;28;20113;-65
2023/03/22 06:57:27;;;;;;;11.13;7.22;;;10.10;99.90;;;;;;5053988;28;20128;-65
2023/03/22 06:59:52;;;;;;;10.95;6.93;;;10.10;99.90;;;;;;5053174;28;20501;-65
2023/03/22 07:02:18;;;;;;;11.85;6.85;;;10.20;99.90;;;;;;5053158;28;20048;-65
2023/03/22 07:04:45;;;;;;;11.50;6.93;;;10.30;99.90;;;;;;5052949;28;20049;-66
2023/03/22 07:07:10;;;;;;;10.93;6.72;;;10.20;99.90;;;;;;5031988;28;20057;-66
2023/03/22 07:09:38;;;;;;;11.48;7.05;;;10.20;99.90;;;;;;5031882;28;20400;-65
2023/03/22 07:12:04;;;;;;;13.18;7.13;;;10.20;99.90;;;;;;5033254;28;20147;-65
2023/03/22 07:14:30;;;;;;;11.93;6.95;;;10.30;99.90;;;;;;5033107;28;20080;-66
2023/03/22 07:16:56;;;;;;;13.30;7.40;;;10.30;99.90;;;;;;5033099;28;20049;-64
2023/03/22 07:19:22;;;;;;;11.80;6.57;;;10.30;99.90;;;;;;5031972;28;20124;-65
2023/03/22 07:21:47;;;;;;;12.10;6.15;;;10.40;99.90;;;;;;5033044;28;20470;-65
2023/03/22 07:24:13;;;;;;;12.70;7.05;;;10.40;99.90;;;;;;5033375;28;20482;-66
2023/03/22 07:26:39;;;;;;;11.15;6.22;;;10.30;99.90;;;;;;5032742;28;20409;-66
2023/03/22 07:29:05;;;;;;;9.45;5.65;;;10.40;99.90;;;;;;5035536;28;20049;-66
2023/03/22 07:31:35;;;;;;;8.25;5.90;;;10.40;99.90;;;;;;5036623;28;20052;-66
2023/03/22 07:34:01;;;;;;;9.52;5.97;;;10.50;99.90;;;;;;5036873;28;20054;-66
2023/03/22 07:36:27;;;;;;;9.15;5.65;;;10.50;99.90;;;;;;5036102;28;20493;-66
2023/03/22 07:38:53;;;;;;;10.00;5.07;;;10.60;99.90;;;;;;5036405;28;20060;-66
2023/03/22 07:41:19;;;;;;;10.93;5.93;;;10.70;99.90;;;;;;5035223;28;20045;-65
2023/03/22 07:43:45;;;;;;;10.35;5.28;;;10.60;99.90;;;;;;5035698;28;20095;-66
2023/03/22 07:46:11;;;;;;;10.38;5.45;;;10.60;99.90;;;;;;5036811;28;20045;-66
2023/03/22 07:48:38;;;;;;;9.60;6.05;;;10.60;99.90;;;;;;5036293;28;20081;-66
2023/03/22 07:51:04;;;;;;;9.05;5.10;;;10.60;99.90;;;;;;5035262;28;20128;-66
2023/03/22 07:53:30;;;;;;;10.18;5.30;;;10.60;99.90;;;;;;5036138;28;20045;-65
2023/03/22 07:55:55;;;;;;;8.95;5.47;;;10.70;99.90;;;;;;5036136;28;20053;-66
2023/03/22 07:58:21;;;;;;;8.07;5.30;;;10.70;99.90;;;;;;5036069;28;20045;-66
2023/03/22 08:00:48;;;;;;;8.85;5.00;;;10.80;99.90;;;;;;5036077;28;20049;-66
2023/03/22 08:03:14;;;;;;;7.70;4.80;;;10.70;99.90;;;;;;5036029;28;20491;-66
2023/03/22 08:05:42;;;;;;;8.38;5.25;;;10.70;99.90;;;;;;5035847;28;20053;-66
2023/03/22 08:08:09;;;;;;;9.10;4.43;;;10.70;99.90;;;;;;5053914;28;20049;-65
2023/03/22 08:10:35;;;;;;;10.57;4.90;;;10.60;99.90;;;;;;5055743;28;20511;-66
2023/03/22 08:13:01;;;;;;;10.38;4.93;;;10.70;99.90;;;;;;5055743;28;20045;-66
2023/03/22 08:15:27;;;;;;;11.23;4.60;;;10.60;99.90;;;;;;5055685;28;20045;-66
2023/03/22 08:17:56;;;;;;;9.70;4.38;;;10.60;99.90;;;;;;5055660;28;20041;-66
2023/03/22 08:20:26;;;;;;;8.65;4.60;;;10.70;99.90;;;;;;5055622;28;20049;-66
2023/03/22 08:22:52;;;;;;;6.63;3.88;;;10.60;99.90;;;;;;5056059;28;20091;-66
2023/03/22 08:25:19;;;;;;;7.70;4.00;;;10.60;99.90;;;;;;5055525;28;20095;-66
2023/03/22 08:27:45;;;;;;;7.93;3.75;;;10.60;99.90;;;;;;5037647;28;20120;-65
2023/03/22 08:30:11;;;;;;;8.65;4.30;;;10.60;99.90;;;;;;5055444;28;20500;-66
2023/03/22 08:32:37;;;;;;;7.25;4.00;;;10.70;99.90;;;;;;5037823;28;20084;-66
2023/03/22 08:35:05;;;;;;;7.43;3.80;;;10.60;99.90;;;;;;5055200;28;20117;-66
2023/03/22 08:37:31;;;;;;;6.75;3.55;;;10.60;99.90;;;;;;5055274;28;20178;-65
2023/03/22 08:39:57;;;;;;;6.07;3.65;;;10.70;99.90;;;;;;5037911;28;20099;-66
2023/03/22 08:42:24;;;;;;;4.38;3.35;;;10.70;99.90;;;;;;5055721;28;20057;-65
2023/03/22 08:44:50;;;;;;;7.47;3.58;;;10.80;99.90;;;;;;5055685;28;20132;-65
2023/03/22 08:47:16;;;;;;;6.90;3.35;;;10.80;99.90;;;;;;5037479;28;20047;-65
2023/03/22 08:49:42;;;;;;;6.25;3.83;;;10.90;99.90;;;;;;5054965;28;20037;-65
2023/03/22 08:52:08;;;;;;;5.53;3.25;;;10.80;99.90;;;;;;5055048;28;20518;-65
2023/03/22 08:54:33;;;;;;;6.45;3.20;;;10.90;99.90;;;;;;5054568;28;20041;-66
2023/03/22 08:57:02;;;;;;;7.55;3.60;;;10.90;99.90;;;;;;5054843;28;20040;-66
2023/03/22 08:59:28;;;;;;;6.40;2.90;;;11.00;99.90;;;;;;5055177;28;20495;-66
2023/03/22 09:01:53;;;;;;;6.28;3.13;;;10.90;99.90;;;;;;5037128;28;20048;-66
2023/03/22 09:04:19;;;;;;;8.77;3.17;;;10.90;99.90;;;;;;5055536;28;20496;-66
2023/03/22 09:06:45;;;;;;;8.27;3.05;;;10.90;99.90;;;;;;5055015;28;20075;-66
2023/03/22 09:09:12;;;;;;;6.70;3.33;;;11.00;99.90;;;;;;5055425;28;20045;-65
2023/03/22 09:11:40;;;;;;;8.60;5.22;;;11.00;99.90;;;;;;5020570;28;20044;-66
2023/03/22 09:14:05;;;;;;;6.13;3.72;;;11.10;99.90;;;;;;5054561;28;20064;-66
2023/03/22 09:16:31;;;;;;;7.68;3.55;;;11.00;99.90;;;;;;5036790;28;20045;-66
2023/03/22 09:18:57;;;;;;;5.65;2.75;;;11.20;99.90;;;;;;5036694;28;20107;-66
2023/03/22 09:21:22;;;;;;;7.15;3.58;;;11.10;99.90;;;;;;5056209;28;20053;-66
2023/03/22 09:23:49;;;;;;;9.52;4.07;;;11.20;99.90;;;;;;5054366;28;20045;-65
2023/03/22 09:26:15;;;;;;;12.07;6.35;;;11.20;99.90;;;;;;5054448;28;20423;-65
2023/03/22 09:28:40;;;;;;;4.57;2.97;;;11.10;99.90;;;;;;5054989;28;20037;-66
2023/03/22 09:31:08;;;;;;;6.65;2.80;;;11.40;99.90;;;;;;5025160;28;20473;-67
2023/03/22 09:33:34;;;;;;;6.10;2.75;;;11.30;99.90;;;;;;5057331;28;20109;-66
2023/03/22 09:36:00;;;;;;;5.38;2.55;;;11.40;99.90;;;;;;5054911;28;20124;-66
2023/03/22 09:38:26;;;;;;;5.95;3.00;;;11.60;99.90;;;;;;5036103;28;20569;-67
2023/03/22 09:41:00;;;;;;;6.53;3.05;;;11.40;99.90;;;;;;5053935;28;20045;-67
2023/03/22 09:43:31;;;;;;;6.38;3.20;;;11.40;99.90;;;;;;5036853;28;20053;-66
2023/03/22 09:45:58;;;;;;;5.18;2.58;;;11.40;99.90;;;;;;5054879;28;20077;-66
2023/03/22 09:48:31;;;;;;;6.18;2.75;;;11.40;99.90;;;;;;5054060;28;20477;-67
2023/03/22 09:50:59;;;;;;;7.00;2.63;;;11.40;99.90;;;;;;5036080;28;20080;-67
2023/03/22 09:53:27;;;;;;;9.65;2.47;;;11.40;99.90;;;;;;5054010;28;20052;-67
2023/03/22 09:56:14;;;;;;;6.28;2.40;;;11.40;99.90;;;;;;5036378;28;20052;-66
2023/03/22 09:58:49;;;;;;;9.07;3.20;;;11.40;99.90;;;;;;5036759;28;20045;-67
2023/03/22 10:01:36;;;;;;;6.25;2.42;;;11.40;99.90;;;;;;5036705;28;20051;-67
2023/03/22 10:04:15;;;;;;;6.45;3.40;;;11.50;99.90;;;;;;5054071;28;20183;-67
2023/03/22 10:06:48;;;;;;;6.43;2.60;;;11.50;99.90;;;;;;5053695;28;20049;-67
2023/03/22 10:09:30;;;;;;;6.13;2.20;;;11.50;99.90;;;;;;5054014;28;20048;-68
2023/03/22 10:12:08;;;;;;;4.65;2.15;;;11.50;99.90;;;;;;5058505;28;20041;-67
2023/03/22 10:14:41;;;;;;;5.65;2.28;;;11.50;99.90;;;;;;5058494;28;20048;-67
2023/03/22 10:17:17;;;;;;;9.73;2.37;;;11.60;99.90;;;;;;5054273;28;20130;-66
2023/03/22 10:20:07;;;;;;;4.22;2.15;;;11.50;99.90;;;;;;5053583;28;20275;-67
2023/03/22 10:22:37;;;;;;;9.55;2.40;;;11.50;99.90;;;;;;5053506;28;20056;-67
2023/03/22 10:25:06;;;;;;;5.28;2.30;;;11.50;99.90;;;;;;5053845;28;20482;-67
2023/03/22 10:27:33;;;;;;;15.65;8.18;;;11.40;99.90;;;;;;5053373;28;20045;-67
2023/03/22 10:30:06;;;;;;;4.88;2.08;;;11.40;99.90;;;;;;5053528;28;20061;-67
2023/03/22 10:32:40;;;;;;;6.20;2.13;;;11.40;99.90;;;;;;5053360;28;20477;-66
2023/03/22 10:35:07;;;;;;;7.78;2.60;;;11.40;99.90;;;;;;5052964;28;20052;-66
2023/03/22 10:37:34;;;;;;;8.63;2.28;;;11.40;99.90;;;;;;5053317;28;20055;-67
2023/03/22 10:40:06;;;;;;;6.07;2.30;;;11.30;99.90;;;;;;5053289;28;20037;-67
2023/03/22 10:42:35;;;;;;;8.07;3.58;;;11.30;99.90;;;;;;5019555;28;20048;-67
2023/03/22 10:45:15;;;;;;;6.13;2.65;;;11.20;99.90;;;;;;5053583;28;20045;-67
2023/03/22 10:47:43;;;;;;;5.07;2.83;;;11.20;99.90;;;;;;5036510;28;20103;-67
2023/03/22 10:50:27;;;;;;;7.28;2.20;;;11.10;99.90;;;;;;5053981;28;20140;-68
2023/03/22 10:53:20;;;;;;;4.75;2.45;;;11.10;99.90;;;;;;5035066;28;20057;-67
2023/03/22 10:55:46;;;;;;;9.07;2.55;;;11.20;99.90;;;;;;5052951;28;20060;-67
2023/03/22 10:58:20;;;;;;;6.75;2.50;;;11.10;99.90;;;;;;5053411;28;20041;-67
2023/03/22 11:01:02;;;;;;;5.57;2.08;;;11.00;99.90;;;;;;5035396;28;20051;-67
2023/03/22 11:03:35;;;;;;;7.13;2.20;;;11.00;99.90;;;;;;5054715;28;20081;-66
2023/03/22 11:06:35;;;;;;;5.25;1.92;;;10.80;99.90;;;;;;5056967;28;20095;-67
2023/03/22 11:09:30;;;;;;;4.50;2.30;;;10.70;99.90;;;;;;5016983;28;20046;-66
2023/03/22 11:11:59;;;;;;;6.97;2.42;;;10.90;99.90;;;;;;5004305;28;20054;-67
2023/03/22 11:14:34;;;;;;;6.20;2.20;;;10.80;99.90;;;;;;5015706;28;20112;-66
2023/03/22 11:17:08;;;;;;;5.63;2.60;;;10.80;99.90;;;;;;5016673;28;20192;-67
2023/03/22 11:19:40;;;;;;;7.50;2.90;;;10.70;99.90;;;;;;5016988;28;20044;-66
2023/03/22 11:22:32;;;;;;;4.88;2.42;;;10.70;99.90;;;;;;5017665;28;20051;-66
2023/03/22 11:24:59;;;;;;;8.43;2.78;;;10.70;99.90;;;;;;5002204;28;20053;-66
2023/03/22 11:27:27;;;;;;;5.57;2.55;;;10.60;99.90;;;;;;5017009;28;20056;-66
2023/03/22 11:29:57;;;;;;;7.43;3.05;;;10.70;99.90;;;;;;4999314;28;20115;-66
2023/03/22 11:32:29;;;;;;;7.30;3.20;;;10.50;99.90;;;;;;5016768;28;20056;-67
2023/03/22 11:35:12;;;;;;;6.35;3.08;;;10.50;99.90;;;;;;5016616;28;20386;-66
2023/03/22 11:37:46;;;;;;;9.10;3.33;;;10.60;99.90;;;;;;5017291;28;20390;-66
2023/03/22 11:40:20;;;;;;;7.18;3.05;;;10.50;99.90;;;;;;5016645;28;20049;-66
2023/03/22 11:42:51;;;;;;;7.07;3.42;;;10.60;99.90;;;;;;5017049;28;20050;-66
2023/03/22 11:45:27;;;;;;;8.32;3.72;;;10.60;99.90;;;;;;5016996;28;20049;-66
2023/03/22 11:47:53;;;;;;;7.47;2.92;;;10.50;99.90;;;;;;5016038;28;20498;-66
2023/03/22 11:50:29;;;;;;;5.53;3.08;;;10.80;99.90;;;;;;5016358;28;20128;-67
2023/03/22 11:52:56;;;;;;;7.05;2.95;;;10.60;99.90;;;;;;5016745;28;20050;-67
2023/03/22 11:55:23;;;;;;;4.38;2.95;;;10.60;99.90;;;;;;5016508;28;20053;-67
2023/03/22 11:57:50;;;;;;;7.53;3.35;;;10.60;99.90;;;;;;5016345;28;20104;-66
2023/03/22 12:00:20;;;;;;;7.63;2.92;;;10.70;99.90;;;;;;5016285;28;20502;-67
2023/03/22 12:03:01;;;;;;;6.90;2.75;;;10.60;99.90;;;;;;5016234;28;20128;-67
2023/03/22 12:05:32;;;;;;;4.45;2.10;;;10.70;99.90;;;;;;5015184;28;20128;-67
2023/03/22 12:08:14;;;;;;;4.07;2.03;;;10.70;99.90;;;;;;5044517;28;20122;-66
2023/03/22 12:10:46;;;;;;;7.35;2.13;;;10.70;99.90;;;;;;5056478;28;20127;-66
2023/03/22 12:13:33;;;;;;;6.47;2.33;;;10.70;99.90;;;;;;5055324;28;20136;-67
2023/03/22 12:16:03;;;;;;;6.28;2.10;;;10.90;99.90;;;;;;5055494;28;20045;-67
2023/03/22 12:19:07;;;;;;;6.75;2.03;;;10.70;99.90;;;;;;5055655;28;20445;-66
2023/03/22 12:21:34;;;;;;;7.60;1.80;;;10.80;99.90;;;;;;5055144;28;20508;-66
2023/03/22 12:24:03;;;;;;;4.50;2.03;;;10.80;99.90;;;;;;5055954;28;20384;-67
2023/03/22 12:26:31;;;;;;;3.40;1.52;;;10.80;99.90;;;;;;5037823;28;20496;-66
2023/03/22 12:29:15;;;;;;;4.80;1.38;;;10.70;99.90;;;;;;5056083;28;20064;-67
2023/03/22 12:31:54;;;;;;;3.55;1.65;;;10.70;99.90;;;;;;5055102;28;20096;-67
2023/03/22 12:34:28;;;;;;;4.10;1.80;;;10.70;99.90;;;;;;5055808;28;20040;-66
2023/03/22 12:36:55;;;;;;;3.40;1.77;;;10.70;99.90;;;;;;5038161;28;20424;-67
2023/03/22 12:39:29;;;;;;;5.90;1.70;;;10.70;99.90;;;;;;5037665;28;20146;-66
2023/03/22 12:42:01;;;;;;;5.30;1.60;;;10.80;99.90;;;;;;5055676;28;20045;-67
2023/03/22 12:44:33;;;;;;;3.38;1.42;;;10.80;99.90;;;;;;5055628;28;20053;-67
2023/03/22 12:47:23;;;;;;;5.65;1.73;;;10.70;99.90;;;;;;5055038;28;20044;-67
2023/03/22 12:50:01;;;;;;;6.43;1.90;;;10.70;99.90;;;;;;5037982;28;20041;-67
2023/03/22 12:52:41;;;;;;;5.43;2.00;;;10.70;99.90;;;;;;5054848;28;20145;-67
2023/03/22 12:55:11;;;;;;;5.50;1.83;;;10.70;99.90;;;;;;5055620;28;20056;-66
2023/03/22 12:57:40;;;;;;;4.93;2.08;;;10.80;99.90;;;;;;5055048;28;20520;-66
2023/03/22 13:00:14;;;;;;;5.18;2.47;;;10.70;99.90;;;;;;5054869;28;20064;-66
2023/03/22 13:02:49;;;;;;;5.40;2.67;;;10.70;99.90;;;;;;5038114;28;20044;-66
2023/03/22 13:05:16;;;;;;;5.05;2.55;;;10.70;99.90;;;;;;5054662;28;20052;-67